LIMA

Torino-Aeritalia Airport

Airport
ICAO code
LIMA
Summary
ICAO Region
EUR
ICAO Territory
Location

Corso Marche, Piedmont

Serving
Turin
Elevation
943 ft
Coordinates
45° 5' 8" N , 7° 36' 8" E
KCC
Metar
Observation
LIMA 031550Z 20005KT CAVOK 15/M02 Q1023
Station
AERITALIA
Date/Time
2023-02-03 16:50:00
Wind direction
200°
Wind speed
05 kts
Lowest cloud amount
clouds and visibility OK
Temperature
15°C
Dew point
-2°C
Humidity
30%
QNH
1023 hPa
Weather condition
n/a

Turin-Aeritalia Airport, also known as Edoardo Agnelli Airport, is the historical airport of Turin in northern Italy. Torino-Aeritalia is used for tourist flights and as a flying school, both for gliding and powered flight. There is also a helipad for the use of air ambulances.

Climatology

Humid subtropical climate (Köppen climate classification Cfa)

Runways

Designator Length Width Surface Rops
10R/28L 750 40 GRS No/No
10L/28R 1074 30 ASP No/No

Airport map

Aerial View

SKYbrary Partners:

Safety knowledge contributed by: